SCELSAZM

Guest
Details From SCEL - Arturo Merino Benitez Intl
To SAZM - Mar Del Plata Brig Gen D Bartolome
Flight Number -
Tags Generated
Created
Modified
Stats Distance 699 nm / 1,295 km
Max Altitude 0 ft / 0 m
Waypoints 3
Social Downloads 1
Likes 0
Share VATSIM

Download

Looking for another format? Having issues loading an existing format? Contact us
Advertisement - Login to hide

Notes

Generated

Route

SCEL R1339 SAZM

ID Type Via Altitude Latitude Longitude Leg Dist Tot Dist Heading (true) Name
O SCEL APT - 0 ft / 0 m -33.37608˚ -70.78671˚ - 0 nm - -
R1339 FIX - 0 ft / 0 m -37.92886˚ -57.58393˚ 699 nm 699 nm 117° / 109° -
O SAZM APT - 0 ft / 0 m -37.92886˚ -57.58393˚ 0 nm 699 nm 0° / 180° -

Altitude Profile

Advertisement - Login to hide

Weather


0- 5 10 15 20 25 30 35+ Temperature / ° C

Clouds and Precipitation
Forecast for 2017-12-16 18:00 UTC. Updated 2 hours ago

Ground ~20,000 ft ~40,000 ft Winds

SCEL

Details ICAO SCEL (SCL)
Name Arturo Merino Benitez Intl
Region Chile
Timezone America/Santiago (UTC-3.0)
Stats Elevation 1,550 ft / 472 m (AMSL)
Location -33.389775° -70.794366°
Runways 2
Magnetic Variation 1.801° E

METAR

SCEL 161700Z 18010KT CAVOK 27/09 Q1013 NOSIG

Decode

TAF

TAF SCEL 161030Z 1612/1712 VRB02KT CAVOK TX29/1619Z TN14/1710Z BECMG 1613/1615 16005KT BECMG 1615/1617 20012KT BECMG 1618/1620 SCT180 BECMG 1703/1705 16005KT

Decode

Departure Runways

ID Width Length Bearing (true) Bearing (mag) Surface Threshold Offset Overrun Length
17L 180 ft / 55 m 10,523 ft / 3,207 m 177.43° 175.63° Asphalt 0 ft / 0 m 0 ft / 0 m
17R 148 ft / 45 m 12,504 ft / 3,811 m 177.44° 175.64° Asphalt 0 ft / 0 m 0 ft / 0 m
35L 148 ft / 45 m 12,504 ft / 3,811 m 357.44° 355.64° Asphalt 0 ft / 0 m 0 ft / 0 m
35R 180 ft / 55 m 10,523 ft / 3,207 m 357.43° 355.63° Asphalt 1,800 ft / 549 m 0 ft / 0 m

SAZM

Details ICAO SAZM (MDQ)
Name Mar Del Plata Brig Gen D Bartolome
Region Argentina
Timezone America/Argentina/Buenos_Aires (UTC-3.0)
Stats Elevation 71 ft / 22 m (AMSL)
Location -37.934190° -57.573395°
Runways 1
Magnetic Variation 7.580° W

METAR

SAZM 161700Z 33021G31KT CAVOK 34/18 Q0996

Decode

TAF

TAF SAZM 161100Z 1612/1712 34015KT CAVOK TX33/1617Z TN11/1709Z BECMG 1615/1617 9999 SCT030TCU BECMG 1619/1621 16015KT 4000 TSRA SCT030 FEW040CB OVC040 BECMG 1702/1704 18020G30KT 5000 RA SCT010 OVC030 BECMG 1709/1711 18015KT 9999 BKN020

Decode

Destination Runways

ID Width Length Bearing (true) Bearing (mag) Surface Threshold Offset Overrun Length
13 197 ft / 60 m 7,204 ft / 2,196 m 122.66° 130.24° Asphalt 0 ft / 0 m 196 ft / 60 m
31 197 ft / 60 m 7,204 ft / 2,196 m 302.65° 310.23° Asphalt 0 ft / 0 m 0 ft / 0 m

Approach Navaids

Runway Type Ident Frequency Range Bearing (true) Bearing (mag) Slope Elevation
13 Localiser MP 109.50 MHz 18 nm / 33 km 122.49° 130.07° - 71 ft / 22 m (AMSL)
13 Glidescope MP 109.50 MHz 10 nm / 19 km 122.66° 130.23° 3.00° 71 ft / 22 m (AMSL)
13 DME MP 109.50 MHz 18 nm / 33 km - - - 70 ft / 21 m (AMSL)